sensor_id;sensor_type;location;lat;lon;timestamp;temperature;humidity
40654;DHT22;26344;45.532;9.232;2023-11-21T09:35:25;16.90;99.90
40654;DHT22;26344;45.532;9.232;2023-11-21T09:37:53;17.30;99.90
40654;DHT22;26344;45.532;9.232;2023-11-21T09:42:53;17.40;99.90
40654;DHT22;26344;45.532;9.232;2023-11-21T09:50:11;17.60;99.90
40654;DHT22;26344;45.532;9.232;2023-11-21T09:55:04;17.30;99.90
40654;DHT22;26344;45.532;9.232;2023-11-21T09:59:57;17.40;99.90
40654;DHT22;26344;45.532;9.232;2023-11-21T10:02:26;17.70;99.90
40654;DHT22;26344;45.532;9.232;2023-11-21T10:04:53;17.60;99.90
40654;DHT22;26344;45.532;9.232;2023-11-21T10:07:20;17.50;99.90
40654;DHT22;26344;45.532;9.232;2023-11-21T10:09:46;17.80;99.90
40654;DHT22;26344;45.532;9.232;2023-11-21T10:12:12;17.30;99.90
40654;DHT22;26344;45.532;9.232;2023-11-21T10:14:40;17.50;99.90
40654;DHT22;26344;45.532;9.232;2023-11-21T10:17:06;17.60;99.90
40654;DHT22;26344;45.532;9.232;2023-11-21T10:19:34;17.70;99.90
40654;DHT22;26344;45.532;9.232;2023-11-21T10:22:00;17.80;99.90
40654;DHT22;26344;45.532;9.232;2023-11-21T10:24:26;18.20;99.90
40654;DHT22;26344;45.532;9.232;2023-11-21T10:26:52;18.40;99.90
40654;DHT22;26344;45.532;9.232;2023-11-21T10:31:48;19.80;99.90
40654;DHT22;26344;45.532;9.232;2023-11-21T10:36:40;20.10;99.90
40654;DHT22;26344;45.532;9.232;2023-11-21T10:48:54;19.60;99.90
40654;DHT22;26344;45.532;9.232;2023-11-21T10:51:22;19.80;99.90
40654;DHT22;26344;45.532;9.232;2023-11-21T10:53:52;20.30;99.90
40654;DHT22;26344;45.532;9.232;2023-11-21T10:56:18;20.60;99.90
40654;DHT22;26344;45.532;9.232;2023-11-21T10:58:48;20.90;99.50
40654;DHT22;26344;45.532;9.232;2023-11-21T11:01:13;21.30;99.40
40654;DHT22;26344;45.532;9.232;2023-11-21T11:03:40;21.60;98.50
40654;DHT22;26344;45.532;9.232;2023-11-21T11:06:06;21.80;97.80
40654;DHT22;26344;45.532;9.232;2023-11-21T11:08:37;21.90;97.60
40654;DHT22;26344;45.532;9.232;2023-11-21T11:11:04;22.00;97.40
40654;DHT22;26344;45.532;9.232;2023-11-21T11:13:30;22.20;97.40
40654;DHT22;26344;45.532;9.232;2023-11-21T11:15:57;22.40;97.00
40654;DHT22;26344;45.532;9.232;2023-11-21T11:18:24;23.00;95.80
40654;DHT22;26344;45.532;9.232;2023-11-21T11:20:50;23.40;95.50
40654;DHT22;26344;45.532;9.232;2023-11-21T11:33:38;24.00;94.20
40654;DHT22;26344;45.532;9.232;2023-11-21T11:38:33;24.20;93.10
40654;DHT22;26344;45.532;9.232;2023-11-21T11:41:01;24.30;92.60
40654;DHT22;26344;45.532;9.232;2023-11-21T11:43:28;24.60;92.60
40654;DHT22;26344;45.532;9.232;2023-11-21T11:45:56;25.00;92.20
40654;DHT22;26344;45.532;9.232;2023-11-21T11:48:24;25.10;91.40
40654;DHT22;26344;45.532;9.232;2023-11-21T11:51:05;25.30;91.40
40654;DHT22;26344;45.532;9.232;2023-11-21T11:53:40;25.60;90.70
40654;DHT22;26344;45.532;9.232;2023-11-21T11:56:25;25.80;90.50
40654;DHT22;26344;45.532;9.232;2023-11-21T11:58:51;25.80;90.00
40654;DHT22;26344;45.532;9.232;2023-11-21T12:01:20;26.00;89.40
40654;DHT22;26344;45.532;9.232;2023-11-21T12:06:33;26.40;88.20
40654;DHT22;26344;45.532;9.232;2023-11-21T12:09:00;26.50;86.60
40654;DHT22;26344;45.532;9.232;2023-11-21T12:11:30;26.70;86.70
40654;DHT22;26344;45.532;9.232;2023-11-21T12:13:55;26.90;85.80
40654;DHT22;26344;45.532;9.232;2023-11-21T12:16:21;27.30;85.50
40654;DHT22;26344;45.532;9.232;2023-11-21T12:18:48;27.50;84.20
40654;DHT22;26344;45.532;9.232;2023-11-21T12:21:13;28.00;83.40
40654;DHT22;26344;45.532;9.232;2023-11-21T12:23:39;28.30;81.80
40654;DHT22;26344;45.532;9.232;2023-11-21T12:26:06;28.70;81.00
40654;DHT22;26344;45.532;9.232;2023-11-21T12:28:31;28.70;79.40
40654;DHT22;26344;45.532;9.232;2023-11-21T12:30:57;29.10;79.60
40654;DHT22;26344;45.532;9.232;2023-11-21T12:33:22;29.30;78.40
40654;DHT22;26344;45.532;9.232;2023-11-21T12:35:48;29.50;77.70
40654;DHT22;26344;45.532;9.232;2023-11-21T12:38:14;29.50;76.60
40654;DHT22;26344;45.532;9.232;2023-11-21T12:40:39;29.70;76.30
40654;DHT22;26344;45.532;9.232;2023-11-21T12:43:06;29.90;76.10
40654;DHT22;26344;45.532;9.232;2023-11-21T12:45:33;29.80;75.30
40654;DHT22;26344;45.532;9.232;2023-11-21T12:48:00;29.90;78.60
40654;DHT22;26344;45.532;9.232;2023-11-21T12:50:29;28.10;77.50
40654;DHT22;26344;45.532;9.232;2023-11-21T12:53:29;29.30;73.70
40654;DHT22;26344;45.532;9.232;2023-11-21T12:58:15;30.50;73.70
40654;DHT22;26344;45.532;9.232;2023-11-21T13:00:47;30.40;73.50
40654;DHT22;26344;45.532;9.232;2023-11-21T13:03:13;30.40;71.80
40654;DHT22;26344;45.532;9.232;2023-11-21T13:05:42;30.60;72.30
40654;DHT22;26344;45.532;9.232;2023-11-21T13:08:10;30.60;72.40
40654;DHT22;26344;45.532;9.232;2023-11-21T13:10:41;30.60;75.20
40654;DHT22;26344;45.532;9.232;2023-11-21T13:13:11;30.70;71.60
40654;DHT22;26344;45.532;9.232;2023-11-21T13:15:47;30.80;71.80
40654;DHT22;26344;45.532;9.232;2023-11-21T13:18:13;31.00;71.40
40654;DHT22;26344;45.532;9.232;2023-11-21T13:20:38;31.00;71.10
40654;DHT22;26344;45.532;9.232;2023-11-21T13:23:07;31.10;71.70
40654;DHT22;26344;45.532;9.232;2023-11-21T13:25:33;31.10;70.00
40654;DHT22;26344;45.532;9.232;2023-11-21T13:27:59;30.70;69.80
40654;DHT22;26344;45.532;9.232;2023-11-21T13:30:25;31.40;69.40
40654;DHT22;26344;45.532;9.232;2023-11-21T13:32:59;31.40;69.90
40654;DHT22;26344;45.532;9.232;2023-11-21T13:38:03;31.70;77.10
40654;DHT22;26344;45.532;9.232;2023-11-21T13:40:28;32.10;68.20
40654;DHT22;26344;45.532;9.232;2023-11-21T13:42:54;31.80;68.60
40654;DHT22;26344;45.532;9.232;2023-11-21T13:45:20;31.70;68.10
40654;DHT22;26344;45.532;9.232;2023-11-21T13:47:48;31.90;68.30
40654;DHT22;26344;45.532;9.232;2023-11-21T13:50:16;31.90;68.20
40654;DHT22;26344;45.532;9.232;2023-11-21T13:52:47;31.90;67.90
40654;DHT22;26344;45.532;9.232;2023-11-21T13:55:13;31.90;67.70
40654;DHT22;26344;45.532;9.232;2023-11-21T13:57:42;31.80;67.30
40654;DHT22;26344;45.532;9.232;2023-11-21T14:00:15;31.50;67.50
40654;DHT22;26344;45.532;9.232;2023-11-21T14:03:00;31.50;67.80
40654;DHT22;26344;45.532;9.232;2023-11-21T14:05:26;31.60;67.70
40654;DHT22;26344;45.532;9.232;2023-11-21T14:07:57;31.80;67.80
40654;DHT22;26344;45.532;9.232;2023-11-21T14:10:30;31.60;67.90
40654;DHT22;26344;45.532;9.232;2023-11-21T14:13:06;31.10;67.80
40654;DHT22;26344;45.532;9.232;2023-11-21T14:15:31;30.60;67.80
40654;DHT22;26344;45.532;9.232;2023-11-21T14:17:58;29.80;67.70
40654;DHT22;26344;45.532;9.232;2023-11-21T14:20:25;29.70;68.60
40654;DHT22;26344;45.532;9.232;2023-11-21T14:22:50;29.10;69.40
40654;DHT22;26344;45.532;9.232;2023-11-21T14:25:16;28.50;69.80
40654;DHT22;26344;45.532;9.232;2023-11-21T14:27:43;28.30;70.60
40654;DHT22;26344;45.532;9.232;2023-11-21T14:30:09;27.90;71.00
40654;DHT22;26344;45.532;9.232;2023-11-21T14:32:37;27.50;71.30
40654;DHT22;26344;45.532;9.232;2023-11-21T14:35:03;27.20;71.70
40654;DHT22;26344;45.532;9.232;2023-11-21T14:37:29;26.80;72.30
40654;DHT22;26344;45.532;9.232;2023-11-21T14:39:54;26.60;73.80
40654;DHT22;26344;45.532;9.232;2023-11-21T14:42:21;26.30;73.50
40654;DHT22;26344;45.532;9.232;2023-11-21T14:44:50;26.00;74.10
40654;DHT22;26344;45.532;9.232;2023-11-21T14:47:17;25.60;74.30
40654;DHT22;26344;45.532;9.232;2023-11-21T14:49:50;25.30;75.20
40654;DHT22;26344;45.532;9.232;2023-11-21T14:52:20;25.00;76.00
40654;DHT22;26344;45.532;9.232;2023-11-21T14:55:01;24.70;76.30
40654;DHT22;26344;45.532;9.232;2023-11-21T14:57:46;24.40;76.10
40654;DHT22;26344;45.532;9.232;2023-11-21T15:00:15;24.10;76.80
40654;DHT22;26344;45.532;9.232;2023-11-21T15:03:01;23.70;76.60
40654;DHT22;26344;45.532;9.232;2023-11-21T15:05:28;23.50;77.40
40654;DHT22;26344;45.532;9.232;2023-11-21T15:07:54;23.20;77.70
40654;DHT22;26344;45.532;9.232;2023-11-21T15:10:22;22.20;78.50
40654;DHT22;26344;45.532;9.232;2023-11-21T15:12:54;22.90;79.40
40654;DHT22;26344;45.532;9.232;2023-11-21T15:15:20;22.80;80.00
40654;DHT22;26344;45.532;9.232;2023-11-21T15:17:46;22.30;79.90
40654;DHT22;26344;45.532;9.232;2023-11-21T15:20:12;22.40;80.90
40654;DHT22;26344;45.532;9.232;2023-11-21T15:22:44;22.20;81.40
40654;DHT22;26344;45.532;9.232;2023-11-21T15:25:10;22.00;81.40
40654;DHT22;26344;45.532;9.232;2023-11-21T15:27:35;21.90;82.00
40654;DHT22;26344;45.532;9.232;2023-11-21T15:30:02;21.80;82.20
40654;DHT22;26344;45.532;9.232;2023-11-21T15:32:28;21.70;82.70
40654;DHT22;26344;45.532;9.232;2023-11-21T15:34:54;21.60;83.10
40654;DHT22;26344;45.532;9.232;2023-11-21T15:37:19;21.50;84.10
40654;DHT22;26344;45.532;9.232;2023-11-21T15:39:45;21.40;83.90
40654;DHT22;26344;45.532;9.232;2023-11-21T15:42:11;21.20;84.20
40654;DHT22;26344;45.532;9.232;2023-11-21T15:44:37;19.40;83.50
40654;DHT22;26344;45.532;9.232;2023-11-21T15:47:04;21.10;85.30
40654;DHT22;26344;45.532;9.232;2023-11-21T15:49:30;20.90;85.40
40654;DHT22;26344;45.532;9.232;2023-11-21T15:51:59;20.70;85.30
40654;DHT22;26344;45.532;9.232;2023-11-21T15:54:25;20.70;86.20
40654;DHT22;26344;45.532;9.232;2023-11-21T15:56:52;20.60;86.60
40654;DHT22;26344;45.532;9.232;2023-11-21T15:59:17;20.50;86.40
40654;DHT22;26344;45.532;9.232;2023-11-21T16:01:43;20.50;87.50
40654;DHT22;26344;45.532;9.232;2023-11-21T16:04:12;20.40;87.60
40654;DHT22;26344;45.532;9.232;2023-11-21T16:06:44;20.30;87.80
40654;DHT22;26344;45.532;9.232;2023-11-21T16:09:11;20.20;88.20
40654;DHT22;26344;45.532;9.232;2023-11-21T16:11:54;20.10;88.40
40654;DHT22;26344;45.532;9.232;2023-11-21T16:14:24;20.00;89.70
40654;DHT22;26344;45.532;9.232;2023-11-21T16:16:52;19.90;89.00
40654;DHT22;26344;45.532;9.232;2023-11-21T16:19:18;19.90;89.20
40654;DHT22;26344;45.532;9.232;2023-11-21T16:21:46;19.80;89.50
40654;DHT22;26344;45.532;9.232;2023-11-21T16:24:12;19.70;90.10
40654;DHT22;26344;45.532;9.232;2023-11-21T16:26:41;19.70;90.40
40654;DHT22;26344;45.532;9.232;2023-11-21T16:29:07;19.60;90.50
40654;DHT22;26344;45.532;9.232;2023-11-21T16:31:32;19.60;90.70
40654;DHT22;26344;45.532;9.232;2023-11-21T16:33:59;19.60;90.70
40654;DHT22;26344;45.532;9.232;2023-11-21T16:36:25;19.50;90.90
40654;DHT22;26344;45.532;9.232;2023-11-21T16:38:50;19.30;90.80
40654;DHT22;26344;45.532;9.232;2023-11-21T16:41:16;19.20;91.10
40654;DHT22;26344;45.532;9.232;2023-11-21T16:43:43;19.20;91.40
40654;DHT22;26344;45.532;9.232;2023-11-21T16:46:10;19.20;91.60
40654;DHT22;26344;45.532;9.232;2023-11-21T16:48:36;19.10;91.70
40654;DHT22;26344;45.532;9.232;2023-11-21T16:51:02;19.10;91.60
40654;DHT22;26344;45.532;9.232;2023-11-21T16:53:28;19.10;92.10
40654;DHT22;26344;45.532;9.232;2023-11-21T16:55:53;19.00;92.10
40654;DHT22;26344;45.532;9.232;2023-11-21T16:58:18;18.50;92.20
40654;DHT22;26344;45.532;9.232;2023-11-21T17:00:44;18.80;92.50
40654;DHT22;26344;45.532;9.232;2023-11-21T17:03:12;18.80;92.60
40654;DHT22;26344;45.532;9.232;2023-11-21T17:05:37;18.70;92.60
40654;DHT22;26344;45.532;9.232;2023-11-21T17:08:03;18.60;92.80
40654;DHT22;26344;45.532;9.232;2023-11-21T17:10:30;18.70;93.10
40654;DHT22;26344;45.532;9.232;2023-11-21T17:12:55;18.60;93.00
40654;DHT22;26344;45.532;9.232;2023-11-21T17:15:21;18.60;93.40
40654;DHT22;26344;45.532;9.232;2023-11-21T17:17:47;18.50;93.50
40654;DHT22;26344;45.532;9.232;2023-11-21T17:20:12;18.50;93.70
40654;DHT22;26344;45.532;9.232;2023-11-21T17:22:39;18.40;93.90
40654;DHT22;26344;45.532;9.232;2023-11-21T17:25:06;18.40;93.90
40654;DHT22;26344;45.532;9.232;2023-11-21T17:27:32;18.40;94.10
40654;DHT22;26344;45.532;9.232;2023-11-21T17:29:58;18.30;94.20
40654;DHT22;26344;45.532;9.232;2023-11-21T17:32:24;18.30;94.40
40654;DHT22;26344;45.532;9.232;2023-11-21T17:34:49;18.10;94.50
40654;DHT22;26344;45.532;9.232;2023-11-21T17:37:15;18.10;94.70
40654;DHT22;26344;45.532;9.232;2023-11-21T17:39:41;18.00;94.80
40654;DHT22;26344;45.532;9.232;2023-11-21T17:42:07;18.10;95.10
40654;DHT22;26344;45.532;9.232;2023-11-21T17:44:33;18.00;95.10
40654;DHT22;26344;45.532;9.232;2023-11-21T17:46:58;18.00;95.20
40654;DHT22;26344;45.532;9.232;2023-11-21T17:49:26;18.00;95.00
40654;DHT22;26344;45.532;9.232;2023-11-21T17:51:51;17.80;95.40
40654;DHT22;26344;45.532;9.232;2023-11-21T17:54:18;17.90;95.40
40654;DHT22;26344;45.532;9.232;2023-11-21T17:56:44;17.80;95.50
40654;DHT22;26344;45.532;9.232;2023-11-21T17:59:09;17.80;95.70
40654;DHT22;26344;45.532;9.232;2023-11-21T18:01:35;17.70;95.80
40654;DHT22;26344;45.532;9.232;2023-11-21T18:04:02;17.70;95.80
40654;DHT22;26344;45.532;9.232;2023-11-21T18:06:29;17.70;96.20
40654;DHT22;26344;45.532;9.232;2023-11-21T18:08:55;19.10;96.50
40654;DHT22;26344;45.532;9.232;2023-11-21T18:11:23;17.60;96.30
40654;DHT22;26344;45.532;9.232;2023-11-21T18:13:48;17.60;96.60
40654;DHT22;26344;45.532;9.232;2023-11-21T18:16:14;17.60;96.60
40654;DHT22;26344;45.532;9.232;2023-11-21T18:18:40;17.60;96.70
40654;DHT22;26344;45.532;9.232;2023-11-21T18:21:06;17.50;96.80
40654;DHT22;26344;45.532;9.232;2023-11-21T18:23:32;17.50;96.80
40654;DHT22;26344;45.532;9.232;2023-11-21T18:25:59;17.50;97.10
40654;DHT22;26344;45.532;9.232;2023-11-21T18:28:25;17.40;97.40
40654;DHT22;26344;45.532;9.232;2023-11-21T18:30:50;17.50;97.50
40654;DHT22;26344;45.532;9.232;2023-11-21T18:33:16;17.30;97.60
40654;DHT22;26344;45.532;9.232;2023-11-21T18:35:44;17.30;97.60
40654;DHT22;26344;45.532;9.232;2023-11-21T18:38:11;17.20;97.90
40654;DHT22;26344;45.532;9.232;2023-11-21T18:40:36;15.00;97.30
40654;DHT22;26344;45.532;9.232;2023-11-21T18:43:02;17.20;97.90
40654;DHT22;26344;45.532;9.232;2023-11-21T18:45:27;17.20;98.30
40654;DHT22;26344;45.532;9.232;2023-11-21T18:47:53;17.10;98.20
40654;DHT22;26344;45.532;9.232;2023-11-21T18:50:18;17.10;98.50
40654;DHT22;26344;45.532;9.232;2023-11-21T18:52:46;17.10;98.70
40654;DHT22;26344;45.532;9.232;2023-11-21T18:55:12;17.10;99.90
40654;DHT22;26344;45.532;9.232;2023-11-21T18:57:37;17.00;99.10
40654;DHT22;26344;45.532;9.232;2023-11-21T19:00:03;17.00;99.30
40654;DHT22;26344;45.532;9.232;2023-11-21T19:02:33;16.90;99.30
40654;DHT22;26344;45.532;9.232;2023-11-21T19:04:59;16.60;99.20
40654;DHT22;26344;45.532;9.232;2023-11-21T19:07:28;16.90;99.30
40654;DHT22;26344;45.532;9.232;2023-11-21T19:09:59;16.80;99.30
40654;DHT22;26344;45.532;9.232;2023-11-21T19:12:24;17.10;99.90
40654;DHT22;26344;45.532;9.232;2023-11-21T19:14:50;16.70;99.60
40654;DHT22;26344;45.532;9.232;2023-11-21T19:17:16;16.90;99.90
40654;DHT22;26344;45.532;9.232;2023-11-21T19:19:43;16.70;99.90
40654;DHT22;26344;45.532;9.232;2023-11-21T19:22:10;16.70;99.90
40654;DHT22;26344;45.532;9.232;2023-11-21T19:24:35;16.60;99.90
40654;DHT22;26344;45.532;9.232;2023-11-21T19:27:01;16.70;99.90
40654;DHT22;26344;45.532;9.232;2023-11-21T19:29:28;16.60;99.90
40654;DHT22;26344;45.532;9.232;2023-11-21T19:31:53;16.70;99.90
40654;DHT22;26344;45.532;9.232;2023-11-21T19:34:20;16.60;99.90
40654;DHT22;26344;45.532;9.232;2023-11-21T19:36:46;16.60;99.90
40654;DHT22;26344;45.532;9.232;2023-11-21T19:39:11;16.50;99.90
40654;DHT22;26344;45.532;9.232;2023-11-21T19:41:37;16.50;99.90
40654;DHT22;26344;45.532;9.232;2023-11-21T19:44:04;16.50;99.90
40654;DHT22;26344;45.532;9.232;2023-11-21T19:46:29;16.50;99.90
40654;DHT22;26344;45.532;9.232;2023-11-21T19:48:55;16.60;99.90
40654;DHT22;26344;45.532;9.232;2023-11-21T19:51:21;16.40;99.90
40654;DHT22;26344;45.532;9.232;2023-11-21T19:53:47;16.30;99.90
40654;DHT22;26344;45.532;9.232;2023-11-21T19:56:12;16.30;99.90
40654;DHT22;26344;45.532;9.232;2023-11-21T19:58:39;16.30;99.90
40654;DHT22;26344;45.532;9.232;2023-11-21T20:01:05;16.30;99.90
40654;DHT22;26344;45.532;9.232;2023-11-21T20:03:30;16.20;99.90
40654;DHT22;26344;45.532;9.232;2023-11-21T20:05:59;16.20;99.90
40654;DHT22;26344;45.532;9.232;2023-11-21T20:08:27;16.20;99.90
40654;DHT22;26344;45.532;9.232;2023-11-21T20:10:56;16.10;99.90
40654;DHT22;26344;45.532;9.232;2023-11-21T20:13:21;16.10;99.90
40654;DHT22;26344;45.532;9.232;2023-11-21T20:18:13;16.10;99.90
40654;DHT22;26344;45.532;9.232;2023-11-21T20:20:38;16.10;99.90
40654;DHT22;26344;45.532;9.232;2023-11-21T20:23:03;16.10;99.90
40654;DHT22;26344;45.532;9.232;2023-11-21T20:25:29;15.90;99.90
40654;DHT22;26344;45.532;9.232;2023-11-21T20:27:55;16.00;99.90
40654;DHT22;26344;45.532;9.232;2023-11-21T20:30:21;15.90;99.90
40654;DHT22;26344;45.532;9.232;2023-11-21T20:35:16;15.80;99.90
40654;DHT22;26344;45.532;9.232;2023-11-21T20:37:43;15.90;99.90
40654;DHT22;26344;45.532;9.232;2023-11-21T20:40:09;15.90;99.90
40654;DHT22;26344;45.532;9.232;2023-11-21T20:42:34;15.90;99.90
40654;DHT22;26344;45.532;9.232;2023-11-21T20:45:01;17.80;99.90
40654;DHT22;26344;45.532;9.232;2023-11-21T20:47:26;15.70;99.90
40654;DHT22;26344;45.532;9.232;2023-11-21T20:49:54;14.40;99.90
40654;DHT22;26344;45.532;9.232;2023-11-21T20:52:25;15.60;99.90
40654;DHT22;26344;45.532;9.232;2023-11-21T20:54:51;16.00;99.90
40654;DHT22;26344;45.532;9.232;2023-11-21T20:57:16;15.60;99.90
40654;DHT22;26344;45.532;9.232;2023-11-21T20:59:42;15.50;99.90
40654;DHT22;26344;45.532;9.232;2023-11-21T21:02:08;15.50;99.90
40654;DHT22;26344;45.532;9.232;2023-11-21T21:04:35;15.40;99.90
40654;DHT22;26344;45.532;9.232;2023-11-21T21:07:01;17.50;99.90
40654;DHT22;26344;45.532;9.232;2023-11-21T21:09:27;15.80;99.90
40654;DHT22;26344;45.532;9.232;2023-11-21T21:11:52;15.30;99.90
40654;DHT22;26344;45.532;9.232;2023-11-21T21:14:18;15.30;99.90
40654;DHT22;26344;45.532;9.232;2023-11-21T21:16:44;15.30;99.90
40654;DHT22;26344;45.532;9.232;2023-11-21T21:19:09;15.50;99.90
40654;DHT22;26344;45.532;9.232;2023-11-21T21:21:36;15.40;99.90
40654;DHT22;26344;45.532;9.232;2023-11-21T21:24:01;15.30;99.90
40654;DHT22;26344;45.532;9.232;2023-11-21T21:26:27;15.20;99.90
40654;DHT22;26344;45.532;9.232;2023-11-21T21:28:54;15.30;99.90
40654;DHT22;26344;45.532;9.232;2023-11-21T21:31:24;15.80;99.90
40654;DHT22;26344;45.532;9.232;2023-11-21T21:33:53;15.30;99.90
40654;DHT22;26344;45.532;9.232;2023-11-21T21:36:18;17.80;99.90
40654;DHT22;26344;45.532;9.232;2023-11-21T21:38:45;16.90;99.90
40654;DHT22;26344;45.532;9.232;2023-11-21T21:41:11;13.20;99.90
40654;DHT22;26344;45.532;9.232;2023-11-21T21:43:37;15.20;99.90
40654;DHT22;26344;45.532;9.232;2023-11-21T21:46:03;15.30;99.90
40654;DHT22;26344;45.532;9.232;2023-11-21T21:48:29;15.60;99.90
40654;DHT22;26344;45.532;9.232;2023-11-21T21:50:57;15.10;99.90
40654;DHT22;26344;45.532;9.232;2023-11-21T21:53:23;14.90;99.90
40654;DHT22;26344;45.532;9.232;2023-11-21T21:55:48;14.60;99.90
40654;DHT22;26344;45.532;9.232;2023-11-21T21:58:17;15.10;99.90
40654;DHT22;26344;45.532;9.232;2023-11-21T22:00:44;15.00;99.90
40654;DHT22;26344;45.532;9.232;2023-11-21T22:03:09;15.00;99.90
40654;DHT22;26344;45.532;9.232;2023-11-21T22:05:35;15.00;99.90
40654;DHT22;26344;45.532;9.232;2023-11-21T22:08:01;15.10;99.90
40654;DHT22;26344;45.532;9.232;2023-11-21T22:10:27;15.00;99.90
40654;DHT22;26344;45.532;9.232;2023-11-21T22:12:53;14.90;99.90
40654;DHT22;26344;45.532;9.232;2023-11-21T22:15:20;14.90;99.90
40654;DHT22;26344;45.532;9.232;2023-11-21T22:17:45;16.00;99.90
40654;DHT22;26344;45.532;9.232;2023-11-21T22:20:11;15.00;99.90
40654;DHT22;26344;45.532;9.232;2023-11-21T22:22:37;14.90;99.90
40654;DHT22;26344;45.532;9.232;2023-11-21T22:25:03;14.80;99.90
40654;DHT22;26344;45.532;9.232;2023-11-21T22:27:29;12.80;99.90
40654;DHT22;26344;45.532;9.232;2023-11-21T22:29:54;15.20;99.90
40654;DHT22;26344;45.532;9.232;2023-11-21T22:32:20;14.80;99.90
40654;DHT22;26344;45.532;9.232;2023-11-21T22:34:47;14.90;99.90
40654;DHT22;26344;45.532;9.232;2023-11-21T22:37:12;15.80;99.90
40654;DHT22;26344;45.532;9.232;2023-11-21T22:39:39;14.80;99.90
40654;DHT22;26344;45.532;9.232;2023-11-21T22:42:06;14.80;99.90
40654;DHT22;26344;45.532;9.232;2023-11-21T22:44:32;14.80;99.90
40654;DHT22;26344;45.532;9.232;2023-11-21T22:46:57;14.80;99.90
40654;DHT22;26344;45.532;9.232;2023-11-21T22:49:25;15.60;99.90
40654;DHT22;26344;45.532;9.232;2023-11-21T22:51:50;15.40;99.90
40654;DHT22;26344;45.532;9.232;2023-11-21T22:54:16;14.70;99.90
40654;DHT22;26344;45.532;9.232;2023-11-21T22:56:42;14.80;99.90
40654;DHT22;26344;45.532;9.232;2023-11-21T22:59:08;14.70;99.90
40654;DHT22;26344;45.532;9.232;2023-11-21T23:01:33;14.70;99.90
40654;DHT22;26344;45.532;9.232;2023-11-21T23:03:59;15.20;99.90
40654;DHT22;26344;45.532;9.232;2023-11-21T23:06:24;14.60;99.90
40654;DHT22;26344;45.532;9.232;2023-11-21T23:08:51;14.70;99.90
40654;DHT22;26344;45.532;9.232;2023-11-21T23:11:17;14.80;99.90
40654;DHT22;26344;45.532;9.232;2023-11-21T23:13:42;14.60;99.90
40654;DHT22;26344;45.532;9.232;2023-11-21T23:16:08;14.40;99.90
40654;DHT22;26344;45.532;9.232;2023-11-21T23:18:34;14.50;99.90
40654;DHT22;26344;45.532;9.232;2023-11-21T23:21:00;14.50;99.90
40654;DHT22;26344;45.532;9.232;2023-11-21T23:23:26;14.50;99.90
40654;DHT22;26344;45.532;9.232;2023-11-21T23:25:55;14.60;99.90
40654;DHT22;26344;45.532;9.232;2023-11-21T23:28:24;14.50;99.90
40654;DHT22;26344;45.532;9.232;2023-11-21T23:30:50;14.50;99.90
40654;DHT22;26344;45.532;9.232;2023-11-21T23:33:18;14.50;99.90
40654;DHT22;26344;45.532;9.232;2023-11-21T23:35:45;14.50;99.90
40654;DHT22;26344;45.532;9.232;2023-11-21T23:38:11;14.50;99.90
40654;DHT22;26344;45.532;9.232;2023-11-21T23:40:36;14.40;99.90
40654;DHT22;26344;45.532;9.232;2023-11-21T23:43:01;14.20;99.90
40654;DHT22;26344;45.532;9.232;2023-11-21T23:45:27;15.60;99.90
40654;DHT22;26344;45.532;9.232;2023-11-21T23:47:53;13.80;99.90
40654;DHT22;26344;45.532;9.232;2023-11-21T23:50:19;14.40;99.90
40654;DHT22;26344;45.532;9.232;2023-11-21T23:52:52;13.90;99.90
40654;DHT22;26344;45.532;9.232;2023-11-21T23:55:18;14.50;99.90
40654;DHT22;26344;45.532;9.232;2023-11-21T23:57:43;15.40;99.90
